FVMV

Masvingo International Airport

Masvingo, Zimbabwe
METAR FVMV 251200Z 16006KT CAVOK 32/03 Q1017 NOSIG
Observed Flight Rules
Sep-25 @ 12:00 UTC (3 hours ago) Visual Flight Rules
Wind Visibility Clouds
160° at 6 knots 10,000+ meters
  • Clear skies
Temperatures Readings
Current 32°C / 90°F
Dewpoint 3°C / 37°F
Humidity 16%
Altimeter 30.03" Hg
Pressure 1017 hPa
Elevation 1095
METAR FVMV 251200Z 16006KT CAVOK 32/03 Q1017 NOSIG
Observed Flight Rules
Sep-25 @ 12:00 UTC
(3 hours ago)
VFR
Wind Visibility
160° at 6 knots 10,000+ meters
Clouds
  • Clear skies
Temperature Dewpoint
32°C / 90°F 3°C / 37°F
Humidity Altimeter Pressure
16% 30.03" Hg 1017 hPa